createdAt,value
2022-12-25T00:01:22.689Z,101886.34
2022-12-25T00:03:51.491Z,101887.19
2022-12-25T00:06:19.864Z,101889.84
2022-12-25T00:08:53.107Z,101898.63
2022-12-25T00:11:24.465Z,101897.75
2022-12-25T00:13:53.277Z,101906.53
2022-12-25T00:16:34.199Z,101908.28
2022-12-25T00:19:02.786Z,101898.63
2022-12-25T00:21:33.612Z,101898.59
2022-12-25T00:24:02.845Z,101895.13
2022-12-25T00:26:36.993Z,101906.56
2022-12-25T00:29:13.788Z,101903.03
2022-12-25T00:31:40.874Z,101903.91
2022-12-25T00:34:19.861Z,101895.16
2022-12-25T00:36:53.736Z,101893.44
2022-12-25T00:39:24.545Z,101898.69
2022-12-25T00:42:10.132Z,101900.44
2022-12-25T00:44:37.312Z,101904.81
2022-12-25T00:47:07.807Z,101893.31
2022-12-25T00:49:38.635Z,101899.44
2022-12-25T00:52:07.505Z,101899.50
2022-12-25T00:54:36.388Z,101897.75
2022-12-25T00:57:04.477Z,101898.59
2022-12-25T00:59:36.163Z,101895.97
2022-12-25T01:02:22.596Z,101889.66
2022-12-25T01:04:57.628Z,101893.81
2022-12-25T01:07:28.340Z,101888.28
2022-12-25T01:10:13.773Z,101887.03
2022-12-25T01:12:43.056Z,101883.28
2022-12-25T01:15:11.320Z,101881.69
2022-12-25T01:17:38.254Z,101882.50
2022-12-25T01:20:08.615Z,101884.66
2022-12-25T01:22:35.572Z,101884.97
2022-12-25T01:25:02.465Z,101882.50
2022-12-25T01:27:30.377Z,101893.25
2022-12-25T01:32:40.541Z,101900.19
2022-12-25T01:35:08.329Z,101901.81
2022-12-25T01:37:35.330Z,101902.53
2022-12-25T01:40:02.321Z,101897.09
2022-12-25T01:42:29.542Z,101902.31
2022-12-25T01:45:38.173Z,101902.91
2022-12-25T01:48:09.122Z,101874.22
2022-12-25T01:51:00.888Z,101885.84
2022-12-25T01:53:30.645Z,101894.22
2022-12-25T01:56:04.819Z,101896.34
2022-12-25T01:58:35.109Z,101898.38
2022-12-25T02:01:03.083Z,101893.19
2022-12-25T02:03:30.071Z,101895.00
2022-12-25T02:06:01.067Z,101891.25
2022-12-25T02:08:29.661Z,101896.59
2022-12-25T02:10:56.571Z,101893.97
2022-12-25T02:13:23.385Z,101896.44
2022-12-25T02:16:17.356Z,101900.81
2022-12-25T02:18:51.082Z,101898.94
2022-12-25T02:21:39.155Z,101901.00
2022-12-25T02:24:24.222Z,101901.13
2022-12-25T02:27:00.844Z,101903.88
2022-12-25T02:29:33.898Z,101910.03
2022-12-25T02:32:38.379Z,101916.19
2022-12-25T02:35:24.372Z,101907.38
2022-12-25T02:38:16.305Z,101907.28
2022-12-25T02:40:50.453Z,101915.13
2022-12-25T02:43:57.805Z,101911.63
2022-12-25T02:46:45.063Z,101914.25
2022-12-25T02:49:37.911Z,101918.72
2022-12-25T02:52:27.703Z,101917.03
2022-12-25T02:55:28.495Z,101929.28
2022-12-25T02:58:20.504Z,101933.66
2022-12-25T03:01:11.121Z,101935.38
2022-12-25T03:04:01.971Z,101937.16
2022-12-25T03:06:44.294Z,101932.88
2022-12-25T03:09:36.468Z,101930.22
2022-12-25T03:12:13.797Z,101924.91
2022-12-25T03:14:59.764Z,101936.28
2022-12-25T03:17:27.108Z,101931.06
2022-12-25T03:20:13.053Z,101939.88
2022-12-25T03:23:01.863Z,101932.84
2022-12-25T03:25:48.074Z,101940.72
2022-12-25T03:28:15.453Z,101931.97
2022-12-25T03:31:11.793Z,101938.91
2022-12-25T03:34:12.706Z,101947.66
2022-12-25T03:37:18.208Z,101943.28
2022-12-25T03:40:52.534Z,101941.56
2022-12-25T03:43:49.805Z,101940.69
2022-12-25T03:46:38.190Z,101952.94
2022-12-25T03:49:47.358Z,101955.63
2022-12-25T03:52:37.200Z,101947.75
2022-12-25T03:55:27.891Z,101938.91
2022-12-25T03:58:13.678Z,101946.75
2022-12-25T04:01:02.613Z,101941.50
2022-12-25T04:03:49.144Z,101949.47
2022-12-25T04:06:35.732Z,101953.84
2022-12-25T04:09:22.656Z,101945.13
2022-12-25T04:12:08.445Z,101953.88
2022-12-25T04:14:58.299Z,101958.25
2022-12-25T04:17:44.108Z,101960.88
2022-12-25T04:20:29.957Z,101957.34
2022-12-25T04:23:15.705Z,101967.00
2022-12-25T04:26:03.661Z,101959.13
2022-12-25T04:28:54.199Z,101969.63
2022-12-25T04:31:39.832Z,101967.00
2022-12-25T04:34:25.730Z,101967.00
2022-12-25T04:36:52.669Z,101972.25
2022-12-25T04:39:19.826Z,101964.38
2022-12-25T04:41:47.130Z,101970.50
2022-12-25T04:44:14.218Z,101973.13
2022-12-25T04:46:41.391Z,101971.41
2022-12-25T04:49:08.495Z,101976.66
2022-12-25T04:51:38.856Z,101974.03
2022-12-25T04:54:07.534Z,101978.41
2022-12-25T04:56:35.657Z,101969.63
2022-12-25T04:59:06.741Z,101972.25
2022-12-25T05:01:33.993Z,101981.03
2022-12-25T05:04:00.982Z,101986.25
2022-12-25T05:06:29.618Z,101986.25
2022-12-25T05:09:00.314Z,101981.91
2022-12-25T05:11:27.896Z,101989.78
2022-12-25T05:13:54.889Z,101982.78
2022-12-25T05:16:22.170Z,101992.41
2022-12-25T05:18:51.428Z,101988.91
2022-12-25T05:21:19.000Z,101996.78
2022-12-25T05:23:48.893Z,101988.91
2022-12-25T05:26:18.075Z,101988.91
2022-12-25T05:28:45.113Z,101993.28
2022-12-25T05:31:12.076Z,101996.78
2022-12-25T05:33:39.105Z,101995.03
2022-12-25T05:36:07.977Z,101996.78
2022-12-25T05:38:35.145Z,101992.41
2022-12-25T05:41:02.182Z,101980.16
2022-12-25T05:43:29.809Z,101992.41
2022-12-25T05:45:56.668Z,101988.91
2022-12-25T05:48:23.679Z,101985.38
2022-12-25T05:50:51.886Z,101981.00
2022-12-25T05:53:18.786Z,101992.38
2022-12-25T05:55:47.127Z,101991.53
2022-12-25T05:58:13.961Z,101989.78
2022-12-25T06:00:43.783Z,101987.16
2022-12-25T06:03:10.782Z,101998.56
2022-12-25T06:05:40.744Z,101995.03
2022-12-25T06:08:07.632Z,102000.28
2022-12-25T06:10:34.399Z,101997.66
2022-12-25T06:13:01.275Z,101998.53
2022-12-25T06:15:28.116Z,102004.69
2022-12-25T06:17:58.009Z,102010.81
2022-12-25T06:20:24.913Z,102014.28
2022-12-25T06:22:54.609Z,102016.91
2022-12-25T06:25:21.496Z,102015.19
2022-12-25T06:27:48.274Z,102011.69
2022-12-25T06:30:15.303Z,102013.44
2022-12-25T06:32:42.215Z,102012.56
2022-12-25T06:35:09.204Z,102020.41
2022-12-25T06:37:37.346Z,102025.72
2022-12-25T06:40:04.637Z,102030.06
2022-12-25T06:42:31.777Z,102017.81
2022-12-25T06:44:58.553Z,102016.06
2022-12-25T06:47:25.346Z,102020.44
2022-12-25T06:49:52.263Z,102019.56
2022-12-25T06:52:19.198Z,102016.91
2022-12-25T06:54:47.489Z,102012.56
2022-12-25T06:57:14.484Z,102007.31
2022-12-25T06:59:41.347Z,102012.56
2022-12-25T07:02:17.525Z,102009.06
2022-12-25T07:04:45.033Z,102009.03
2022-12-25T07:07:12.097Z,102013.44
2022-12-25T07:09:39.459Z,102008.16
2022-12-25T07:12:08.076Z,102012.56
2022-12-25T07:14:35.187Z,102013.41
2022-12-25T07:17:02.260Z,102022.16
2022-12-25T07:19:29.354Z,102027.44
2022-12-25T07:21:56.872Z,102024.81
2022-12-25T07:24:26.736Z,102031.81
2022-12-25T07:26:54.111Z,102041.47
2022-12-25T07:29:24.310Z,102046.72
2022-12-25T07:31:53.444Z,102041.47
2022-12-25T07:34:30.650Z,102037.97
2022-12-25T07:37:00.693Z,102047.59
2022-12-25T07:39:30.898Z,102056.34
2022-12-25T07:42:02.166Z,102060.75
2022-12-25T07:44:31.153Z,102069.50
2022-12-25T07:46:59.616Z,102068.63
2022-12-25T07:49:26.509Z,102066.00
2022-12-25T07:51:53.494Z,102075.66
2022-12-25T07:54:21.047Z,102067.78
2022-12-25T07:56:52.179Z,102072.06
2022-12-25T07:59:20.115Z,102063.19
2022-12-25T08:01:47.179Z,102067.63
2022-12-25T08:04:14.167Z,102076.38
2022-12-25T08:06:41.124Z,102074.69
2022-12-25T08:09:15.174Z,102084.38
2022-12-25T08:11:49.343Z,102080.81
2022-12-25T08:14:16.349Z,102073.63
2022-12-25T08:16:47.250Z,102084.06
2022-12-25T08:19:15.497Z,102086.66
2022-12-25T08:21:42.511Z,102084.13
2022-12-25T08:24:11.136Z,102086.59
2022-12-25T08:26:39.586Z,102085.56
2022-12-25T08:29:06.432Z,102092.56
2022-12-25T08:31:38.294Z,102092.88
2022-12-25T08:34:09.694Z,102095.53
2022-12-25T08:36:37.417Z,102092.13
2022-12-25T08:39:08.199Z,102097.47
2022-12-25T08:41:36.836Z,102095.75
2022-12-25T08:44:05.014Z,102100.16
2022-12-25T08:46:32.386Z,102105.38
2022-12-25T08:49:00.151Z,102113.28
2022-12-25T08:51:33.524Z,102109.78
2022-12-25T08:54:01.058Z,102112.38
2022-12-25T08:56:30.043Z,102128.22
2022-12-25T08:58:59.340Z,102117.69
2022-12-25T09:01:27.974Z,102117.53
2022-12-25T09:03:55.119Z,102125.38
2022-12-25T09:06:22.526Z,102124.50
2022-12-25T09:08:50.060Z,102123.50
2022-12-25T09:11:22.500Z,102138.34
2022-12-25T09:13:49.499Z,102140.00
2022-12-25T09:16:21.078Z,102135.72
2022-12-25T09:18:48.672Z,102129.53
2022-12-25T09:21:16.804Z,102140.84
2022-12-25T09:23:44.303Z,102148.75
2022-12-25T09:26:14.264Z,102157.50
2022-12-25T09:28:45.339Z,102161.19
2022-12-25T09:31:15.588Z,102162.28
2022-12-25T09:33:44.530Z,102176.41
2022-12-25T09:36:12.964Z,102180.72
2022-12-25T09:38:42.933Z,102172.75
2022-12-25T09:41:50.091Z,102176.13
2022-12-25T09:44:26.145Z,102179.63
2022-12-25T09:47:24.425Z,102176.28
2022-12-25T09:50:11.630Z,102177.25
2022-12-25T09:53:01.333Z,102167.47
2022-12-25T09:55:31.926Z,102176.19
2022-12-25T09:58:02.322Z,102174.41
2022-12-25T10:00:38.923Z,102172.69
2022-12-25T10:03:31.909Z,102175.44
2022-12-25T10:06:05.773Z,102176.38
2022-12-25T10:09:11.137Z,102174.56
2022-12-25T10:12:00.439Z,102178.16
2022-12-25T10:14:32.230Z,102168.59
2022-12-25T10:17:12.699Z,102172.97
2022-12-25T10:19:52.079Z,102173.84
2022-12-25T10:22:47.706Z,102168.53
2022-12-25T10:25:24.970Z,102165.97
2022-12-25T10:28:20.098Z,102163.31
2022-12-25T10:30:51.012Z,102168.56
2022-12-25T10:33:18.000Z,102163.31
2022-12-25T10:35:45.641Z,102168.56
2022-12-25T10:38:16.188Z,102164.19
2022-12-25T10:41:14.371Z,102162.47
2022-12-25T10:43:49.705Z,102178.25
2022-12-25T10:46:17.798Z,102177.34
2022-12-25T10:49:03.763Z,102171.22
2022-12-25T10:51:39.333Z,102163.28
2022-12-25T10:54:28.268Z,102170.28
2022-12-25T10:57:05.297Z,102164.22
2022-12-25T10:59:42.329Z,102158.94
2022-12-25T11:02:35.272Z,102164.16
2022-12-25T11:05:08.586Z,102164.97
2022-12-25T11:07:46.973Z,102157.91
2022-12-25T11:10:25.305Z,102162.41
2022-12-25T11:12:53.781Z,102155.34
2022-12-25T11:15:32.887Z,102151.00
2022-12-25T11:18:02.572Z,102151.00
2022-12-25T11:20:30.412Z,102160.69
2022-12-25T11:23:00.264Z,102156.31
2022-12-25T11:25:28.456Z,102143.97
2022-12-25T11:28:14.323Z,102141.38
2022-12-25T11:30:41.630Z,102141.38
2022-12-25T11:33:14.300Z,102140.50
2022-12-25T11:35:51.178Z,102138.75
2022-12-25T11:38:18.655Z,102138.78
2022-12-25T11:40:57.799Z,102135.25
2022-12-25T11:43:34.359Z,102130.00
2022-12-25T11:46:11.178Z,102134.34
2022-12-25T11:48:44.998Z,102127.31
2022-12-25T11:51:15.388Z,102120.28
2022-12-25T11:53:54.474Z,102113.28
2022-12-25T11:56:28.399Z,102106.28
2022-12-25T11:59:00.897Z,102108.91
2022-12-25T12:01:31.007Z,102111.47
2022-12-25T12:04:01.196Z,102104.38
2022-12-25T12:07:03.578Z,102091.31
2022-12-25T12:09:42.596Z,102093.03
2022-12-25T12:12:23.838Z,102087.59
2022-12-25T12:15:25.033Z,102087.72
2022-12-25T12:17:53.529Z,102092.16
2022-12-25T12:20:34.445Z,102091.31
2022-12-25T12:23:15.771Z,102084.13
2022-12-25T12:25:45.224Z,102073.44
2022-12-25T12:28:21.570Z,102077.81
2022-12-25T12:31:05.353Z,102070.81
2022-12-25T12:33:38.173Z,102078.88
2022-12-25T12:36:06.404Z,102084.16
2022-12-25T12:38:35.480Z,102078.88
2022-12-25T12:41:05.967Z,102080.66
2022-12-25T12:43:41.319Z,102074.44
2022-12-25T12:46:27.689Z,102071.78
2022-12-25T12:49:20.315Z,102079.69
2022-12-25T12:51:47.492Z,102077.91
2022-12-25T12:54:21.102Z,102071.88
2022-12-25T12:57:23.615Z,102078.00
2022-12-25T12:59:50.496Z,102074.41
2022-12-25T13:02:33.089Z,102070.06
2022-12-25T13:05:04.539Z,102075.28
2022-12-25T13:07:52.051Z,102077.88
2022-12-25T13:10:30.345Z,102077.00
2022-12-25T13:13:01.946Z,102083.16
2022-12-25T13:15:33.164Z,102086.69
2022-12-25T13:18:07.570Z,102085.88
2022-12-25T13:20:54.326Z,102083.88
2022-12-25T13:23:30.640Z,102093.25
2022-12-25T13:26:01.472Z,102084.25
2022-12-25T13:28:33.875Z,102085.44
2022-12-25T13:31:18.601Z,102092.63
2022-12-25T13:34:21.055Z,102082.91
2022-12-25T13:36:50.628Z,102096.94
2022-12-25T13:39:25.695Z,102092.53
2022-12-25T13:42:15.476Z,102091.59
2022-12-25T13:44:56.366Z,102088.66
2022-12-25T13:47:36.028Z,102081.78
2022-12-25T13:50:26.281Z,102084.31
2022-12-25T13:52:56.529Z,102091.44
2022-12-25T13:55:30.782Z,102097.66
2022-12-25T13:58:05.029Z,102089.88
2022-12-25T14:00:39.722Z,102096.00
2022-12-25T14:03:15.307Z,102088.84
2022-12-25T14:05:43.710Z,102096.72
2022-12-25T14:08:16.342Z,102101.19
2022-12-25T14:10:45.305Z,102100.47
2022-12-25T14:13:14.974Z,102094.25
2022-12-25T14:15:43.315Z,102101.38
2022-12-25T14:18:17.479Z,102099.72
2022-12-25T14:21:05.299Z,102105.75
2022-12-25T14:23:46.385Z,102103.00
2022-12-25T14:26:18.003Z,102106.47
2022-12-25T14:28:58.156Z,102100.25
2022-12-25T14:31:25.536Z,102095.97
2022-12-25T14:33:54.210Z,102097.84
2022-12-25T14:36:21.664Z,102097.75
2022-12-25T14:39:03.930Z,102100.28
2022-12-25T14:41:42.096Z,102099.38
2022-12-25T14:44:37.205Z,102101.28
2022-12-25T14:47:06.821Z,102107.44
2022-12-25T14:49:33.865Z,102094.19
2022-12-25T14:52:10.273Z,102102.16
2022-12-25T14:54:37.705Z,102100.53
2022-12-25T14:57:07.122Z,102108.41
2022-12-25T14:59:34.201Z,102102.16
2022-12-25T15:02:04.435Z,102109.94
2022-12-25T15:04:32.682Z,102108.19
2022-12-25T15:07:07.493Z,102100.22
2022-12-25T15:09:36.264Z,102109.91
2022-12-25T15:12:03.473Z,102115.13
2022-12-25T15:14:31.881Z,102103.91
2022-12-25T15:17:01.596Z,102109.03
2022-12-25T15:19:37.740Z,102117.84
2022-12-25T15:22:05.691Z,102111.84
2022-12-25T15:24:35.614Z,102106.50
2022-12-25T15:27:02.595Z,102116.09
2022-12-25T15:30:07.970Z,102110.09
2022-12-25T15:32:19.587Z,102105.81
2022-12-25T15:34:49.940Z,102111.94
2022-12-25T15:37:18.588Z,102110.19
2022-12-25T15:39:46.203Z,102112.00
2022-12-25T15:42:21.530Z,102112.00
2022-12-25T15:44:48.530Z,102112.84
2022-12-25T15:47:17.187Z,102117.22
2022-12-25T15:49:44.126Z,102108.31
2022-12-25T15:52:15.107Z,102110.13
2022-12-25T15:54:42.064Z,102116.25
2022-12-25T15:57:21.411Z,102115.53
2022-12-25T15:59:49.434Z,102109.28
2022-12-25T16:02:20.771Z,102117.19
2022-12-25T16:04:51.319Z,102119.91
2022-12-25T16:07:20.767Z,102126.97
2022-12-25T16:09:48.360Z,102123.47
2022-12-25T16:12:15.809Z,102119.00
2022-12-25T16:14:42.978Z,102120.75
2022-12-25T16:17:15.807Z,102113.78
2022-12-25T16:19:45.042Z,102122.72
2022-12-25T16:22:25.834Z,102115.78
2022-12-25T16:24:55.823Z,102126.25
2022-12-25T16:27:23.242Z,102126.28
2022-12-25T16:29:52.341Z,102124.44
2022-12-25T16:32:20.473Z,102129.56
2022-12-25T16:34:50.005Z,102131.25
2022-12-25T16:37:23.302Z,102131.16
2022-12-25T16:39:53.069Z,102133.88
2022-12-25T16:42:20.099Z,102148.97
2022-12-25T16:44:52.448Z,102157.81
2022-12-25T16:47:19.414Z,102149.06
2022-12-25T16:49:48.109Z,102152.59
2022-12-25T16:52:15.322Z,102158.69
2022-12-25T16:54:44.074Z,102154.28
2022-12-25T16:57:11.058Z,102156.03
2022-12-25T16:59:38.321Z,102158.72
2022-12-25T17:02:05.275Z,102150.84
2022-12-25T17:04:34.048Z,102150.66
2022-12-25T17:07:01.408Z,102155.16
2022-12-25T17:09:28.662Z,102145.44
2022-12-25T17:11:58.020Z,102152.56
2022-12-25T17:14:25.940Z,102155.22
2022-12-25T17:16:53.426Z,102172.81
2022-12-25T17:19:24.097Z,102163.13
2022-12-25T17:21:54.046Z,102165.72
2022-12-25T17:24:21.853Z,102171.09
2022-12-25T17:26:50.930Z,102167.50
2022-12-25T17:29:21.899Z,102167.56
2022-12-25T17:31:49.980Z,102173.75
2022-12-25T17:34:20.453Z,102173.63
2022-12-25T17:36:47.984Z,102171.88
2022-12-25T17:39:15.052Z,102169.25
2022-12-25T17:41:42.120Z,102178.13
2022-12-25T17:44:12.418Z,102174.63
2022-12-25T17:46:39.719Z,102174.66
2022-12-25T17:49:09.416Z,102170.22
2022-12-25T17:51:36.430Z,102173.72
2022-12-25T17:54:07.218Z,102183.44
2022-12-25T17:56:35.617Z,102173.69
2022-12-25T17:59:06.985Z,102178.81
2022-12-25T18:01:35.477Z,102186.84
2022-12-25T18:04:06.437Z,102186.75
2022-12-25T18:06:35.707Z,102178.66
2022-12-25T18:09:10.695Z,102176.97
2022-12-25T18:11:41.542Z,102178.66
2022-12-25T18:14:11.772Z,102182.22
2022-12-25T18:16:40.912Z,102184.16
2022-12-25T18:19:08.592Z,102179.00
2022-12-25T18:21:35.716Z,102172.84
2022-12-25T18:24:05.079Z,102175.50
2022-12-25T18:26:34.525Z,102185.13
2022-12-25T18:29:04.298Z,102166.75
2022-12-25T18:31:32.722Z,102177.28
2022-12-25T18:34:00.358Z,102178.09
2022-12-25T18:36:29.586Z,102180.75
2022-12-25T18:38:58.123Z,102178.91
2022-12-25T18:41:28.963Z,102178.91
2022-12-25T18:43:56.390Z,102170.22
2022-12-25T18:46:26.481Z,102173.75
2022-12-25T18:48:56.973Z,102171.13
2022-12-25T18:51:24.447Z,102170.28
2022-12-25T18:53:51.746Z,102173.81
2022-12-25T18:56:24.258Z,102172.91
2022-12-25T18:58:51.050Z,102174.56
2022-12-25T19:01:23.352Z,102178.06
2022-12-25T19:03:51.445Z,102184.31
2022-12-25T19:06:27.879Z,102180.81
2022-12-25T19:08:56.144Z,102177.28
2022-12-25T19:11:26.519Z,102180.81
2022-12-25T19:13:53.445Z,102178.16
2022-12-25T19:16:20.369Z,102175.44
2022-12-25T19:18:47.230Z,102177.25
2022-12-25T19:21:16.202Z,102184.25
2022-12-25T19:23:44.683Z,102189.59
2022-12-25T19:26:13.217Z,102187.00
2022-12-25T19:28:40.829Z,102174.69
2022-12-25T19:31:10.129Z,102190.50
2022-12-25T19:33:39.401Z,102182.47
2022-12-25T19:36:10.904Z,102183.34
2022-12-25T19:38:39.228Z,102184.22
2022-12-25T19:41:08.234Z,102184.28
2022-12-25T19:43:42.903Z,102187.78
2022-12-25T19:46:26.306Z,102190.44
2022-12-25T19:48:53.933Z,102178.16
2022-12-25T19:51:30.708Z,102188.69
2022-12-25T19:53:59.908Z,102192.22
2022-12-25T19:56:29.691Z,102194.81
2022-12-25T19:58:58.732Z,102198.34
2022-12-25T20:01:29.111Z,102204.47
2022-12-25T20:03:59.196Z,102193.06
2022-12-25T20:06:34.426Z,102194.75
2022-12-25T20:09:09.277Z,102192.06
2022-12-25T20:11:38.308Z,102195.56
2022-12-25T20:14:07.671Z,102199.00
2022-12-25T20:16:38.488Z,102209.63
2022-12-25T20:19:07.122Z,102201.66
2022-12-25T20:21:34.498Z,102205.19
2022-12-25T20:24:02.729Z,102204.31
2022-12-25T20:26:34.791Z,102205.28
2022-12-25T20:29:04.717Z,102210.56
2022-12-25T20:31:35.537Z,102209.75
2022-12-25T20:34:27.107Z,102207.09
2022-12-25T20:36:54.354Z,102216.75
2022-12-25T20:39:24.655Z,102215.94
2022-12-25T20:41:51.872Z,102215.03
2022-12-25T20:44:20.042Z,102223.81
2022-12-25T20:46:49.180Z,102215.84
2022-12-25T20:49:16.120Z,102221.09
2022-12-25T20:51:43.340Z,102218.44
2022-12-25T20:54:11.336Z,102222.00
2022-12-25T20:56:38.541Z,102213.25
2022-12-25T20:59:08.767Z,102221.16
2022-12-25T21:01:35.822Z,102215.91
2022-12-25T21:04:03.351Z,102215.06
2022-12-25T21:06:33.130Z,102218.53
2022-12-25T21:09:00.485Z,102209.75
2022-12-25T21:11:28.963Z,102211.56
2022-12-25T21:13:56.118Z,102220.38
2022-12-25T21:16:26.026Z,102225.63
2022-12-25T21:18:54.893Z,102223.88
2022-12-25T21:21:23.109Z,102232.63
2022-12-25T21:23:57.397Z,102237.91
2022-12-25T21:26:29.627Z,102230.88
2022-12-25T21:29:00.716Z,102233.53
2022-12-25T21:31:37.514Z,102241.41
2022-12-25T21:34:05.815Z,102237.91
2022-12-25T21:36:38.857Z,102247.56
2022-12-25T21:39:09.281Z,102244.91
2022-12-25T21:41:40.243Z,102244.94
2022-12-25T21:44:09.271Z,102246.69
2022-12-25T21:46:36.180Z,102252.81
2022-12-25T21:49:04.290Z,102256.34
2022-12-25T21:51:52.862Z,102259.84
2022-12-25T21:54:24.817Z,102263.38
2022-12-25T21:56:54.084Z,102258.97
2022-12-25T21:59:22.230Z,102262.47
2022-12-25T22:01:50.914Z,102265.16
2022-12-25T22:04:22.065Z,102263.38
2022-12-25T22:07:07.578Z,102269.50
2022-12-25T22:09:34.861Z,102265.13
2022-12-25T22:12:22.340Z,102268.59
2022-12-25T22:14:55.464Z,102262.47
2022-12-25T22:17:49.835Z,102261.59
2022-12-25T22:20:40.794Z,102255.47
2022-12-25T22:23:07.879Z,102250.19
2022-12-25T22:25:37.857Z,102242.28
2022-12-25T22:28:04.905Z,102244.03
2022-12-25T22:30:32.098Z,102242.28
2022-12-25T22:33:01.955Z,102239.66
2022-12-25T22:35:29.023Z,102247.53
2022-12-25T22:37:58.255Z,102242.28
2022-12-25T22:40:25.215Z,102237.88
2022-12-25T22:42:56.305Z,102241.41
2022-12-25T22:45:33.221Z,102232.63
2022-12-25T22:48:01.760Z,102242.28
2022-12-25T22:50:29.432Z,102247.53
2022-12-25T22:52:59.476Z,102243.16
2022-12-25T22:55:30.402Z,102256.31
2022-12-25T22:58:01.544Z,102250.19
2022-12-25T23:00:28.689Z,102246.66
2022-12-25T23:02:57.718Z,102254.56
2022-12-25T23:05:25.359Z,102251.03
2022-12-25T23:07:52.399Z,102255.44
2022-12-25T23:10:19.356Z,102258.94
2022-12-25T23:13:04.807Z,102259.81
2022-12-25T23:15:32.795Z,102258.06
2022-12-25T23:18:20.000Z,102264.22
2022-12-25T23:21:07.026Z,102261.56
2022-12-25T23:24:10.856Z,102267.72
2022-12-25T23:26:38.133Z,102264.22
2022-12-25T23:29:24.331Z,102271.25
2022-12-25T23:31:53.860Z,102262.47
2022-12-25T23:34:44.352Z,102265.94
2022-12-25T23:37:14.634Z,102262.44
2022-12-25T23:39:43.803Z,102258.94
2022-12-25T23:42:20.536Z,102259.81
2022-12-25T23:44:58.110Z,102252.81
2022-12-25T23:47:28.038Z,102250.19
2022-12-25T23:49:58.034Z,102253.66
2022-12-25T23:52:49.451Z,102254.53
2022-12-25T23:55:17.599Z,102251.03
2022-12-25T23:58:00.494Z,102246.66
